sensor_id;sensor_type;location;lat;lon;timestamp;P1;durP1;ratioP1;P2;durP2;ratioP2
6438;SDS011;3252;52.540;13.290;2022-09-25T08:07:00;9.90;;;8.70;;
6438;SDS011;3252;52.540;13.290;2022-09-25T08:09:02;12.13;;;8.43;;
6438;SDS011;3252;52.540;13.290;2022-09-25T08:11:06;12.90;;;8.87;;
6438;SDS011;3252;52.540;13.290;2022-09-25T08:13:11;13.70;;;8.40;;
6438;SDS011;3252;52.540;13.290;2022-09-25T08:15:16;12.30;;;8.23;;
6438;SDS011;3252;52.540;13.290;2022-09-25T08:17:18;13.07;;;10.80;;
6438;SDS011;3252;52.540;13.290;2022-09-25T08:19:21;16.10;;;9.50;;
6438;SDS011;3252;52.540;13.290;2022-09-25T08:21:23;11.43;;;8.50;;
6438;SDS011;3252;52.540;13.290;2022-09-25T08:23:27;12.53;;;9.67;;
6438;SDS011;3252;52.540;13.290;2022-09-25T08:25:29;12.80;;;9.80;;
6438;SDS011;3252;52.540;13.290;2022-09-25T08:27:31;11.70;;;8.60;;
6438;SDS011;3252;52.540;13.290;2022-09-25T08:29:40;11.17;;;9.00;;
6438;SDS011;3252;52.540;13.290;2022-09-25T08:31:44;13.87;;;9.00;;
6438;SDS011;3252;52.540;13.290;2022-09-25T08:33:49;15.03;;;8.63;;
6438;SDS011;3252;52.540;13.290;2022-09-25T08:35:53;12.70;;;9.00;;
6438;SDS011;3252;52.540;13.290;2022-09-25T08:37:56;12.30;;;8.50;;
6438;SDS011;3252;52.540;13.290;2022-09-25T08:40:02;12.37;;;8.60;;
6438;SDS011;3252;52.540;13.290;2022-09-25T08:42:05;12.10;;;8.80;;
6438;SDS011;3252;52.540;13.290;2022-09-25T08:44:09;13.63;;;9.13;;
6438;SDS011;3252;52.540;13.290;2022-09-25T08:46:19;12.30;;;9.23;;
6438;SDS011;3252;52.540;13.290;2022-09-25T08:48:46;14.23;;;9.33;;
6438;SDS011;3252;52.540;13.290;2022-09-25T08:51:02;11.03;;;9.13;;
6438;SDS011;3252;52.540;13.290;2022-09-25T08:53:06;12.73;;;9.80;;
6438;SDS011;3252;52.540;13.290;2022-09-25T08:55:22;11.57;;;9.03;;
6438;SDS011;3252;52.540;13.290;2022-09-25T08:57:47;13.80;;;9.70;;
6438;SDS011;3252;52.540;13.290;2022-09-25T08:59:55;10.97;;;9.20;;
6438;SDS011;3252;52.540;13.290;2022-09-25T09:02:00;15.20;;;9.00;;
6438;SDS011;3252;52.540;13.290;2022-09-25T09:04:13;14.13;;;9.00;;
6438;SDS011;3252;52.540;13.290;2022-09-25T09:06:19;11.90;;;9.10;;
6438;SDS011;3252;52.540;13.290;2022-09-25T09:08:23;13.13;;;9.50;;
6438;SDS011;3252;52.540;13.290;2022-09-25T09:10:32;13.50;;;9.00;;
6438;SDS011;3252;52.540;13.290;2022-09-25T09:12:38;12.47;;;8.70;;
6438;SDS011;3252;52.540;13.290;2022-09-25T09:14:45;13.40;;;9.47;;
6438;SDS011;3252;52.540;13.290;2022-09-25T09:16:51;11.97;;;8.47;;
6438;SDS011;3252;52.540;13.290;2022-09-25T09:18:59;12.77;;;9.20;;
6438;SDS011;3252;52.540;13.290;2022-09-25T09:21:07;11.17;;;8.73;;
6438;SDS011;3252;52.540;13.290;2022-09-25T09:23:16;13.63;;;8.63;;
6438;SDS011;3252;52.540;13.290;2022-09-25T09:25:24;12.43;;;8.90;;
6438;SDS011;3252;52.540;13.290;2022-09-25T09:27:33;12.83;;;8.90;;
6438;SDS011;3252;52.540;13.290;2022-09-25T09:29:49;11.33;;;8.90;;
6438;SDS011;3252;52.540;13.290;2022-09-25T09:32:01;13.27;;;8.87;;
6438;SDS011;3252;52.540;13.290;2022-09-25T09:34:22;13.00;;;8.93;;
6438;SDS011;3252;52.540;13.290;2022-09-25T09:36:41;10.73;;;8.90;;
6438;SDS011;3252;52.540;13.290;2022-09-25T09:38:51;13.33;;;9.07;;
6438;SDS011;3252;52.540;13.290;2022-09-25T09:41:00;13.20;;;8.87;;
6438;SDS011;3252;52.540;13.290;2022-09-25T09:43:21;11.17;;;8.47;;
6438;SDS011;3252;52.540;13.290;2022-09-25T09:45:39;18.70;;;8.13;;
6438;SDS011;3252;52.540;13.290;2022-09-25T09:47:54;12.90;;;8.03;;
6438;SDS011;3252;52.540;13.290;2022-09-25T09:50:03;13.30;;;8.30;;
6438;SDS011;3252;52.540;13.290;2022-09-25T09:52:18;10.60;;;8.43;;
6438;SDS011;3252;52.540;13.290;2022-09-25T09:54:23;11.13;;;8.50;;
6438;SDS011;3252;52.540;13.290;2022-09-25T09:56:32;12.13;;;7.87;;
6438;SDS011;3252;52.540;13.290;2022-09-25T09:58:40;11.70;;;8.60;;
6438;SDS011;3252;52.540;13.290;2022-09-25T10:00:47;13.43;;;8.30;;
6438;SDS011;3252;52.540;13.290;2022-09-25T10:02:52;13.30;;;8.43;;
6438;SDS011;3252;52.540;13.290;2022-09-25T10:04:59;10.83;;;7.87;;
6438;SDS011;3252;52.540;13.290;2022-09-25T10:07:08;10.57;;;7.63;;
6438;SDS011;3252;52.540;13.290;2022-09-25T10:09:16;9.87;;;7.67;;
6438;SDS011;3252;52.540;13.290;2022-09-25T10:11:18;10.50;;;7.30;;
6438;SDS011;3252;52.540;13.290;2022-09-25T10:13:23;11.43;;;8.00;;
6438;SDS011;3252;52.540;13.290;2022-09-25T10:15:34;10.63;;;8.17;;
6438;SDS011;3252;52.540;13.290;2022-09-25T10:17:40;13.03;;;7.50;;
6438;SDS011;3252;52.540;13.290;2022-09-25T10:19:45;9.77;;;6.63;;
6438;SDS011;3252;52.540;13.290;2022-09-25T10:21:52;8.33;;;6.57;;
6438;SDS011;3252;52.540;13.290;2022-09-25T10:23:57;9.10;;;6.87;;
6438;SDS011;3252;52.540;13.290;2022-09-25T10:26:03;9.27;;;6.43;;
6438;SDS011;3252;52.540;13.290;2022-09-25T10:28:25;9.13;;;5.60;;
6438;SDS011;3252;52.540;13.290;2022-09-25T10:30:30;9.13;;;5.97;;
6438;SDS011;3252;52.540;13.290;2022-09-25T10:32:34;8.37;;;6.03;;
6438;SDS011;3252;52.540;13.290;2022-09-25T10:34:47;7.83;;;5.63;;
6438;SDS011;3252;52.540;13.290;2022-09-25T10:36:54;7.77;;;5.50;;
6438;SDS011;3252;52.540;13.290;2022-09-25T10:38:56;8.93;;;6.00;;
6438;SDS011;3252;52.540;13.290;2022-09-25T10:41:01;8.37;;;6.17;;
6438;SDS011;3252;52.540;13.290;2022-09-25T10:43:13;7.20;;;5.40;;
6438;SDS011;3252;52.540;13.290;2022-09-25T10:45:26;10.13;;;5.50;;
6438;SDS011;3252;52.540;13.290;2022-09-25T10:47:31;6.83;;;5.50;;
6438;SDS011;3252;52.540;13.290;2022-09-25T10:49:52;11.60;;;5.80;;
6438;SDS011;3252;52.540;13.290;2022-09-25T10:52:13;7.10;;;5.43;;
6438;SDS011;3252;52.540;13.290;2022-09-25T10:54:19;7.63;;;5.83;;
6438;SDS011;3252;52.540;13.290;2022-09-25T10:56:21;6.87;;;6.00;;
6438;SDS011;3252;52.540;13.290;2022-09-25T10:58:35;9.43;;;6.50;;
6438;SDS011;3252;52.540;13.290;2022-09-25T11:00:42;11.20;;;5.80;;
6438;SDS011;3252;52.540;13.290;2022-09-25T11:02:54;10.70;;;7.97;;
6438;SDS011;3252;52.540;13.290;2022-09-25T11:05:00;7.75;;;6.88;;
6438;SDS011;3252;52.540;13.290;2022-09-25T11:07:04;14.50;;;11.80;;
6438;SDS011;3252;52.540;13.290;2022-09-25T11:09:18;8.63;;;7.00;;
6438;SDS011;3252;52.540;13.290;2022-09-25T11:11:27;7.73;;;6.17;;
6438;SDS011;3252;52.540;13.290;2022-09-25T11:13:30;7.90;;;5.83;;
6438;SDS011;3252;52.540;13.290;2022-09-25T11:15:37;8.63;;;5.50;;
6438;SDS011;3252;52.540;13.290;2022-09-25T11:17:40;7.00;;;5.13;;
6438;SDS011;3252;52.540;13.290;2022-09-25T11:19:42;7.50;;;4.97;;
6438;SDS011;3252;52.540;13.290;2022-09-25T11:21:48;8.17;;;5.13;;
6438;SDS011;3252;52.540;13.290;2022-09-25T11:24:07;6.37;;;5.40;;
6438;SDS011;3252;52.540;13.290;2022-09-25T11:26:15;6.20;;;5.27;;
6438;SDS011;3252;52.540;13.290;2022-09-25T11:28:23;6.53;;;5.33;;
6438;SDS011;3252;52.540;13.290;2022-09-25T11:30:33;6.37;;;5.33;;
6438;SDS011;3252;52.540;13.290;2022-09-25T11:32:41;7.80;;;5.40;;
6438;SDS011;3252;52.540;13.290;2022-09-25T11:34:57;6.13;;;5.40;;
6438;SDS011;3252;52.540;13.290;2022-09-25T11:37:23;7.27;;;5.73;;
6438;SDS011;3252;52.540;13.290;2022-09-25T11:39:33;12.07;;;9.27;;
6438;SDS011;3252;52.540;13.290;2022-09-25T11:42:01;8.20;;;6.10;;
6438;SDS011;3252;52.540;13.290;2022-09-25T11:44:16;10.57;;;6.40;;
6438;SDS011;3252;52.540;13.290;2022-09-25T11:46:27;8.10;;;5.60;;
6438;SDS011;3252;52.540;13.290;2022-09-25T11:48:41;7.53;;;5.67;;
6438;SDS011;3252;52.540;13.290;2022-09-25T11:50:53;8.70;;;6.43;;
6438;SDS011;3252;52.540;13.290;2022-09-25T11:53:02;9.13;;;6.60;;
6438;SDS011;3252;52.540;13.290;2022-09-25T11:57:43;8.27;;;5.40;;
6438;SDS011;3252;52.540;13.290;2022-09-25T11:59:59;6.87;;;5.73;;
6438;SDS011;3252;52.540;13.290;2022-09-25T12:02:11;6.60;;;5.50;;
6438;SDS011;3252;52.540;13.290;2022-09-25T12:04:25;6.27;;;5.67;;
6438;SDS011;3252;52.540;13.290;2022-09-25T12:06:55;5.93;;;5.33;;
6438;SDS011;3252;52.540;13.290;2022-09-25T12:09:18;6.03;;;5.00;;
6438;SDS011;3252;52.540;13.290;2022-09-25T12:11:32;7.33;;;5.20;;
6438;SDS011;3252;52.540;13.290;2022-09-25T12:13:45;5.10;;;4.60;;
6438;SDS011;3252;52.540;13.290;2022-09-25T12:15:57;5.30;;;4.78;;
6438;SDS011;3252;52.540;13.290;2022-09-25T12:18:09;5.60;;;5.10;;
6438;SDS011;3252;52.540;13.290;2022-09-25T12:20:19;6.00;;;4.97;;
6438;SDS011;3252;52.540;13.290;2022-09-25T12:22:30;5.38;;;4.88;;
6438;SDS011;3252;52.540;13.290;2022-09-25T12:24:47;5.80;;;5.20;;
6438;SDS011;3252;52.540;13.290;2022-09-25T12:27:08;5.60;;;5.05;;
6438;SDS011;3252;52.540;13.290;2022-09-25T12:29:18;5.35;;;4.55;;
6438;SDS011;3252;52.540;13.290;2022-09-25T12:31:31;5.45;;;4.45;;
6438;SDS011;3252;52.540;13.290;2022-09-25T12:33:40;7.13;;;4.90;;
6438;SDS011;3252;52.540;13.290;2022-09-25T12:35:53;10.32;;;4.90;;
6438;SDS011;3252;52.540;13.290;2022-09-25T12:38:01;6.03;;;4.90;;
6438;SDS011;3252;52.540;13.290;2022-09-25T12:40:12;6.47;;;4.67;;
6438;SDS011;3252;52.540;13.290;2022-09-25T12:42:23;4.97;;;4.10;;
6438;SDS011;3252;52.540;13.290;2022-09-25T12:44:40;4.93;;;4.13;;
6438;SDS011;3252;52.540;13.290;2022-09-25T12:46:48;5.87;;;4.07;;
6438;SDS011;3252;52.540;13.290;2022-09-25T12:48:58;8.47;;;5.00;;
6438;SDS011;3252;52.540;13.290;2022-09-25T12:51:05;5.60;;;4.93;;
6438;SDS011;3252;52.540;13.290;2022-09-25T12:53:23;5.70;;;4.57;;
6438;SDS011;3252;52.540;13.290;2022-09-25T12:55:34;5.18;;;4.60;;
6438;SDS011;3252;52.540;13.290;2022-09-25T12:57:42;8.03;;;4.53;;
6438;SDS011;3252;52.540;13.290;2022-09-25T12:59:49;6.37;;;4.40;;
6438;SDS011;3252;52.540;13.290;2022-09-25T13:01:59;6.03;;;4.27;;
6438;SDS011;3252;52.540;13.290;2022-09-25T13:04:13;7.07;;;3.97;;
6438;SDS011;3252;52.540;13.290;2022-09-25T13:06:27;6.33;;;4.63;;
6438;SDS011;3252;52.540;13.290;2022-09-25T13:08:40;5.77;;;4.13;;
6438;SDS011;3252;52.540;13.290;2022-09-25T13:10:51;5.77;;;4.10;;
6438;SDS011;3252;52.540;13.290;2022-09-25T13:12:57;5.63;;;4.30;;
6438;SDS011;3252;52.540;13.290;2022-09-25T13:15:04;10.77;;;5.00;;
6438;SDS011;3252;52.540;13.290;2022-09-25T13:17:11;5.00;;;4.50;;
6438;SDS011;3252;52.540;13.290;2022-09-25T13:19:24;10.07;;;4.70;;
6438;SDS011;3252;52.540;13.290;2022-09-25T13:21:28;6.40;;;4.70;;
6438;SDS011;3252;52.540;13.290;2022-09-25T13:23:36;6.10;;;4.90;;
6438;SDS011;3252;52.540;13.290;2022-09-25T13:25:42;5.53;;;4.30;;
6438;SDS011;3252;52.540;13.290;2022-09-25T13:27:51;5.63;;;4.27;;
6438;SDS011;3252;52.540;13.290;2022-09-25T13:29:55;6.43;;;3.83;;
6438;SDS011;3252;52.540;13.290;2022-09-25T13:32:02;6.20;;;4.57;;
6438;SDS011;3252;52.540;13.290;2022-09-25T13:34:09;6.10;;;4.63;;
6438;SDS011;3252;52.540;13.290;2022-09-25T13:36:17;9.60;;;4.70;;
6438;SDS011;3252;52.540;13.290;2022-09-25T13:38:31;8.80;;;5.07;;
6438;SDS011;3252;52.540;13.290;2022-09-25T13:41:00;6.17;;;4.77;;
6438;SDS011;3252;52.540;13.290;2022-09-25T13:43:16;6.17;;;4.63;;
6438;SDS011;3252;52.540;13.290;2022-09-25T13:45:30;7.33;;;5.03;;
6438;SDS011;3252;52.540;13.290;2022-09-25T13:50:04;6.67;;;5.50;;
6438;SDS011;3252;52.540;13.290;2022-09-25T13:52:28;8.53;;;4.60;;
6438;SDS011;3252;52.540;13.290;2022-09-25T13:54:31;8.43;;;5.23;;
6438;SDS011;3252;52.540;13.290;2022-09-25T13:56:44;6.57;;;5.20;;
6438;SDS011;3252;52.540;13.290;2022-09-25T14:01:36;7.30;;;5.73;;
6438;SDS011;3252;52.540;13.290;2022-09-25T14:03:42;7.47;;;4.83;;
6438;SDS011;3252;52.540;13.290;2022-09-25T14:05:57;6.73;;;4.93;;
6438;SDS011;3252;52.540;13.290;2022-09-25T14:08:05;8.50;;;5.73;;
6438;SDS011;3252;52.540;13.290;2022-09-25T14:10:31;6.27;;;4.97;;
6438;SDS011;3252;52.540;13.290;2022-09-25T14:12:43;6.40;;;5.40;;
6438;SDS011;3252;52.540;13.290;2022-09-25T14:15:03;7.03;;;5.70;;
6438;SDS011;3252;52.540;13.290;2022-09-25T14:17:08;10.53;;;6.57;;
6438;SDS011;3252;52.540;13.290;2022-09-25T14:19:20;7.47;;;6.20;;
6438;SDS011;3252;52.540;13.290;2022-09-25T14:21:26;7.07;;;5.73;;
6438;SDS011;3252;52.540;13.290;2022-09-25T14:23:32;6.03;;;5.43;;
6438;SDS011;3252;52.540;13.290;2022-09-25T14:25:51;8.30;;;6.20;;
6438;SDS011;3252;52.540;13.290;2022-09-25T14:27:58;9.73;;;5.70;;
6438;SDS011;3252;52.540;13.290;2022-09-25T14:30:08;7.50;;;6.10;;
6438;SDS011;3252;52.540;13.290;2022-09-25T14:32:15;10.17;;;5.30;;
6438;SDS011;3252;52.540;13.290;2022-09-25T14:34:28;11.07;;;7.03;;
6438;SDS011;3252;52.540;13.290;2022-09-25T14:36:40;10.00;;;7.67;;
6438;SDS011;3252;52.540;13.290;2022-09-25T14:38:55;9.00;;;6.60;;
6438;SDS011;3252;52.540;13.290;2022-09-25T14:41:34;5.90;;;5.30;;
6438;SDS011;3252;52.540;13.290;2022-09-25T14:43:51;6.20;;;4.70;;
6438;SDS011;3252;52.540;13.290;2022-09-25T14:46:10;11.83;;;5.50;;
6438;SDS011;3252;52.540;13.290;2022-09-25T14:48:22;7.93;;;5.33;;
6438;SDS011;3252;52.540;13.290;2022-09-25T14:50:29;6.20;;;5.20;;
6438;SDS011;3252;52.540;13.290;2022-09-25T14:52:36;7.87;;;4.90;;
6438;SDS011;3252;52.540;13.290;2022-09-25T14:54:39;5.40;;;4.80;;
6438;SDS011;3252;52.540;13.290;2022-09-25T14:56:47;12.47;;;5.33;;
6438;SDS011;3252;52.540;13.290;2022-09-25T14:58:55;7.17;;;5.40;;
6438;SDS011;3252;52.540;13.290;2022-09-25T15:01:04;7.10;;;6.00;;
6438;SDS011;3252;52.540;13.290;2022-09-25T15:03:15;8.10;;;6.00;;
6438;SDS011;3252;52.540;13.290;2022-09-25T15:05:27;6.93;;;5.40;;
6438;SDS011;3252;52.540;13.290;2022-09-25T15:07:31;7.70;;;5.80;;
6438;SDS011;3252;52.540;13.290;2022-09-25T15:09:34;9.00;;;5.37;;
6438;SDS011;3252;52.540;13.290;2022-09-25T15:11:38;7.63;;;5.73;;
6438;SDS011;3252;52.540;13.290;2022-09-25T15:13:42;9.50;;;5.80;;
6438;SDS011;3252;52.540;13.290;2022-09-25T15:15:46;6.30;;;5.53;;
6438;SDS011;3252;52.540;13.290;2022-09-25T15:18:11;8.43;;;6.40;;
6438;SDS011;3252;52.540;13.290;2022-09-25T15:20:17;11.97;;;6.83;;
6438;SDS011;3252;52.540;13.290;2022-09-25T15:22:23;8.33;;;7.00;;
6438;SDS011;3252;52.540;13.290;2022-09-25T15:24:45;8.93;;;5.90;;
6438;SDS011;3252;52.540;13.290;2022-09-25T15:26:59;8.83;;;5.97;;
6438;SDS011;3252;52.540;13.290;2022-09-25T15:29:10;7.87;;;5.93;;
6438;SDS011;3252;52.540;13.290;2022-09-25T15:31:17;7.27;;;5.93;;
6438;SDS011;3252;52.540;13.290;2022-09-25T15:33:20;11.07;;;7.83;;
6438;SDS011;3252;52.540;13.290;2022-09-25T15:35:25;8.27;;;7.40;;
6438;SDS011;3252;52.540;13.290;2022-09-25T15:37:27;8.10;;;7.07;;
6438;SDS011;3252;52.540;13.290;2022-09-25T15:39:30;7.97;;;7.07;;
6438;SDS011;3252;52.540;13.290;2022-09-25T15:41:41;7.80;;;6.17;;
6438;SDS011;3252;52.540;13.290;2022-09-25T15:43:44;6.03;;;5.43;;
6438;SDS011;3252;52.540;13.290;2022-09-25T15:45:47;6.50;;;5.57;;
6438;SDS011;3252;52.540;13.290;2022-09-25T15:47:55;7.20;;;5.40;;
6438;SDS011;3252;52.540;13.290;2022-09-25T15:49:57;7.33;;;5.70;;
6438;SDS011;3252;52.540;13.290;2022-09-25T15:52:03;5.90;;;5.30;;
6438;SDS011;3252;52.540;13.290;2022-09-25T15:54:17;6.27;;;5.50;;
6438;SDS011;3252;52.540;13.290;2022-09-25T15:56:35;7.70;;;4.97;;
6438;SDS011;3252;52.540;13.290;2022-09-25T15:58:47;7.33;;;5.40;;
6438;SDS011;3252;52.540;13.290;2022-09-25T16:00:55;7.40;;;4.83;;
6438;SDS011;3252;52.540;13.290;2022-09-25T16:03:20;10.00;;;5.13;;
6438;SDS011;3252;52.540;13.290;2022-09-25T16:05:43;6.40;;;5.37;;
6438;SDS011;3252;52.540;13.290;2022-09-25T16:07:49;6.67;;;4.80;;
6438;SDS011;3252;52.540;13.290;2022-09-25T16:09:51;7.40;;;4.67;;
6438;SDS011;3252;52.540;13.290;2022-09-25T16:12:09;5.50;;;4.80;;
6438;SDS011;3252;52.540;13.290;2022-09-25T16:14:25;5.70;;;4.27;;
6438;SDS011;3252;52.540;13.290;2022-09-25T16:16:30;7.37;;;5.27;;
6438;SDS011;3252;52.540;13.290;2022-09-25T16:18:37;7.97;;;4.77;;
6438;SDS011;3252;52.540;13.290;2022-09-25T16:20:41;8.50;;;5.00;;
6438;SDS011;3252;52.540;13.290;2022-09-25T16:22:44;7.07;;;5.40;;
6438;SDS011;3252;52.540;13.290;2022-09-25T16:24:50;8.20;;;5.20;;
6438;SDS011;3252;52.540;13.290;2022-09-25T16:26:55;8.50;;;5.10;;
6438;SDS011;3252;52.540;13.290;2022-09-25T16:29:00;10.87;;;4.60;;
6438;SDS011;3252;52.540;13.290;2022-09-25T16:31:06;6.83;;;4.93;;
6438;SDS011;3252;52.540;13.290;2022-09-25T16:33:13;6.47;;;5.00;;
6438;SDS011;3252;52.540;13.290;2022-09-25T16:35:22;7.30;;;5.47;;
6438;SDS011;3252;52.540;13.290;2022-09-25T16:37:30;7.47;;;5.57;;
6438;SDS011;3252;52.540;13.290;2022-09-25T16:39:34;12.23;;;5.63;;
6438;SDS011;3252;52.540;13.290;2022-09-25T16:41:41;8.00;;;5.70;;
6438;SDS011;3252;52.540;13.290;2022-09-25T16:43:45;5.87;;;5.27;;
6438;SDS011;3252;52.540;13.290;2022-09-25T16:46:02;5.70;;;5.10;;
6438;SDS011;3252;52.540;13.290;2022-09-25T16:48:26;6.83;;;5.23;;
6438;SDS011;3252;52.540;13.290;2022-09-25T16:50:30;5.00;;;4.50;;
6438;SDS011;3252;52.540;13.290;2022-09-25T16:52:39;7.17;;;4.50;;
6438;SDS011;3252;52.540;13.290;2022-09-25T16:54:43;6.07;;;4.57;;
6438;SDS011;3252;52.540;13.290;2022-09-25T16:56:47;6.30;;;5.10;;
6438;SDS011;3252;52.540;13.290;2022-09-25T16:58:49;6.20;;;5.13;;
6438;SDS011;3252;52.540;13.290;2022-09-25T17:00:51;6.13;;;4.80;;
6438;SDS011;3252;52.540;13.290;2022-09-25T17:02:54;7.40;;;4.80;;
6438;SDS011;3252;52.540;13.290;2022-09-25T17:04:56;10.13;;;4.63;;
6438;SDS011;3252;52.540;13.290;2022-09-25T17:06:58;9.90;;;5.50;;
6438;SDS011;3252;52.540;13.290;2022-09-25T17:09:00;6.60;;;4.80;;
6438;SDS011;3252;52.540;13.290;2022-09-25T17:11:02;11.53;;;5.70;;
6438;SDS011;3252;52.540;13.290;2022-09-25T17:13:06;6.10;;;4.73;;
6438;SDS011;3252;52.540;13.290;2022-09-25T17:15:12;11.90;;;6.83;;
6438;SDS011;3252;52.540;13.290;2022-09-25T17:17:20;5.63;;;4.53;;
6438;SDS011;3252;52.540;13.290;2022-09-25T17:19:23;5.23;;;4.70;;
6438;SDS011;3252;52.540;13.290;2022-09-25T17:21:25;5.00;;;4.50;;
6438;SDS011;3252;52.540;13.290;2022-09-25T17:23:27;6.20;;;4.50;;
6438;SDS011;3252;52.540;13.290;2022-09-25T17:25:33;6.30;;;5.20;;
6438;SDS011;3252;52.540;13.290;2022-09-25T17:27:39;6.27;;;5.10;;
6438;SDS011;3252;52.540;13.290;2022-09-25T17:29:44;6.40;;;4.87;;
6438;SDS011;3252;52.540;13.290;2022-09-25T17:31:47;6.10;;;5.40;;
6438;SDS011;3252;52.540;13.290;2022-09-25T17:33:49;6.00;;;5.40;;
6438;SDS011;3252;52.540;13.290;2022-09-25T17:35:52;5.70;;;5.10;;
6438;SDS011;3252;52.540;13.290;2022-09-25T17:37:58;6.20;;;5.33;;
6438;SDS011;3252;52.540;13.290;2022-09-25T17:40:01;7.53;;;5.70;;
6438;SDS011;3252;52.540;13.290;2022-09-25T17:42:12;6.57;;;5.40;;
6438;SDS011;3252;52.540;13.290;2022-09-25T17:44:15;6.70;;;5.17;;
6438;SDS011;3252;52.540;13.290;2022-09-25T17:46:22;5.70;;;4.80;;
6438;SDS011;3252;52.540;13.290;2022-09-25T17:48:26;7.70;;;5.03;;
6438;SDS011;3252;52.540;13.290;2022-09-25T17:50:29;5.53;;;5.00;;
6438;SDS011;3252;52.540;13.290;2022-09-25T17:52:34;6.03;;;5.23;;
6438;SDS011;3252;52.540;13.290;2022-09-25T17:54:40;7.07;;;5.60;;
6438;SDS011;3252;52.540;13.290;2022-09-25T17:56:42;6.23;;;5.50;;
6438;SDS011;3252;52.540;13.290;2022-09-25T17:58:45;9.43;;;5.70;;
6438;SDS011;3252;52.540;13.290;2022-09-25T18:00:47;6.27;;;5.40;;
6438;SDS011;3252;52.540;13.290;2022-09-25T18:02:52;7.03;;;5.60;;
6438;SDS011;3252;52.540;13.290;2022-09-25T18:04:56;19.43;;;13.90;;
6438;SDS011;3252;52.540;13.290;2022-09-25T18:06:58;11.13;;;8.10;;
6438;SDS011;3252;52.540;13.290;2022-09-25T18:09:00;7.87;;;6.40;;
6438;SDS011;3252;52.540;13.290;2022-09-25T18:11:02;7.60;;;6.00;;
6438;SDS011;3252;52.540;13.290;2022-09-25T18:13:05;12.63;;;6.33;;
6438;SDS011;3252;52.540;13.290;2022-09-25T18:15:14;8.00;;;6.20;;
6438;SDS011;3252;52.540;13.290;2022-09-25T18:17:15;7.53;;;4.67;;
6438;SDS011;3252;52.540;13.290;2022-09-25T18:19:19;9.03;;;5.30;;
6438;SDS011;3252;52.540;13.290;2022-09-25T18:21:38;7.50;;;5.90;;
6438;SDS011;3252;52.540;13.290;2022-09-25T18:23:58;10.80;;;5.47;;
6438;SDS011;3252;52.540;13.290;2022-09-25T18:26:01;5.40;;;4.90;;
6438;SDS011;3252;52.540;13.290;2022-09-25T18:28:04;6.67;;;5.17;;
6438;SDS011;3252;52.540;13.290;2022-09-25T18:30:10;5.50;;;5.00;;
6438;SDS011;3252;52.540;13.290;2022-09-25T18:32:14;5.50;;;4.83;;
6438;SDS011;3252;52.540;13.290;2022-09-25T18:34:16;7.23;;;4.77;;
6438;SDS011;3252;52.540;13.290;2022-09-25T18:36:22;6.00;;;5.07;;
6438;SDS011;3252;52.540;13.290;2022-09-25T18:38:24;7.30;;;4.40;;
6438;SDS011;3252;52.540;13.290;2022-09-25T18:40:26;7.80;;;4.87;;
6438;SDS011;3252;52.540;13.290;2022-09-25T18:42:29;6.83;;;5.73;;
6438;SDS011;3252;52.540;13.290;2022-09-25T18:44:31;7.87;;;6.07;;
6438;SDS011;3252;52.540;13.290;2022-09-25T18:46:36;6.90;;;5.50;;
6438;SDS011;3252;52.540;13.290;2022-09-25T18:48:38;6.43;;;5.60;;
6438;SDS011;3252;52.540;13.290;2022-09-25T18:50:47;6.17;;;5.57;;
6438;SDS011;3252;52.540;13.290;2022-09-25T18:52:51;8.07;;;6.40;;
6438;SDS011;3252;52.540;13.290;2022-09-25T18:54:53;9.47;;;5.97;;
6438;SDS011;3252;52.540;13.290;2022-09-25T18:56:55;6.93;;;6.03;;
6438;SDS011;3252;52.540;13.290;2022-09-25T18:58:58;7.87;;;5.53;;
6438;SDS011;3252;52.540;13.290;2022-09-25T19:01:00;6.30;;;5.53;;
6438;SDS011;3252;52.540;13.290;2022-09-25T19:03:02;7.03;;;6.13;;
6438;SDS011;3252;52.540;13.290;2022-09-25T19:05:05;6.20;;;5.60;;
6438;SDS011;3252;52.540;13.290;2022-09-25T19:07:08;6.47;;;5.73;;
6438;SDS011;3252;52.540;13.290;2022-09-25T19:09:12;10.93;;;5.43;;
6438;SDS011;3252;52.540;13.290;2022-09-25T19:11:14;7.67;;;5.57;;
6438;SDS011;3252;52.540;13.290;2022-09-25T19:13:16;7.50;;;5.90;;
6438;SDS011;3252;52.540;13.290;2022-09-25T19:15:19;8.70;;;5.67;;
6438;SDS011;3252;52.540;13.290;2022-09-25T19:17:21;6.03;;;5.43;;
6438;SDS011;3252;52.540;13.290;2022-09-25T19:19:23;6.53;;;5.40;;
6438;SDS011;3252;52.540;13.290;2022-09-25T19:21:25;6.17;;;5.57;;
6438;SDS011;3252;52.540;13.290;2022-09-25T19:23:31;9.00;;;6.83;;
6438;SDS011;3252;52.540;13.290;2022-09-25T19:25:36;11.07;;;7.17;;
6438;SDS011;3252;52.540;13.290;2022-09-25T19:27:41;24.70;;;19.30;;
6438;SDS011;3252;52.540;13.290;2022-09-25T19:29:43;11.30;;;7.47;;
6438;SDS011;3252;52.540;13.290;2022-09-25T19:31:46;7.50;;;6.20;;
6438;SDS011;3252;52.540;13.290;2022-09-25T19:33:48;7.23;;;6.00;;
6438;SDS011;3252;52.540;13.290;2022-09-25T19:35:54;6.40;;;5.80;;
6438;SDS011;3252;52.540;13.290;2022-09-25T19:37:58;7.67;;;5.53;;
6438;SDS011;3252;52.540;13.290;2022-09-25T19:40:00;11.13;;;6.50;;
6438;SDS011;3252;52.540;13.290;2022-09-25T19:42:21;7.20;;;6.40;;
6438;SDS011;3252;52.540;13.290;2022-09-25T19:44:23;6.70;;;5.97;;
6438;SDS011;3252;52.540;13.290;2022-09-25T19:46:26;5.77;;;4.83;;
6438;SDS011;3252;52.540;13.290;2022-09-25T19:48:31;5.30;;;4.80;;
6438;SDS011;3252;52.540;13.290;2022-09-25T19:50:33;5.63;;;5.13;;
6438;SDS011;3252;52.540;13.290;2022-09-25T19:52:35;8.80;;;5.20;;
6438;SDS011;3252;52.540;13.290;2022-09-25T19:54:37;6.27;;;5.03;;
6438;SDS011;3252;52.540;13.290;2022-09-25T19:56:40;7.80;;;6.00;;
6438;SDS011;3252;52.540;13.290;2022-09-25T19:58:46;6.37;;;5.57;;
6438;SDS011;3252;52.540;13.290;2022-09-25T20:00:49;13.20;;;7.90;;
6438;SDS011;3252;52.540;13.290;2022-09-25T20:02:52;8.73;;;5.70;;
6438;SDS011;3252;52.540;13.290;2022-09-25T20:04:54;7.77;;;5.63;;
6438;SDS011;3252;52.540;13.290;2022-09-25T20:06:56;6.70;;;6.00;;
6438;SDS011;3252;52.540;13.290;2022-09-25T20:08:59;6.93;;;4.87;;
6438;SDS011;3252;52.540;13.290;2022-09-25T20:11:08;6.97;;;5.73;;
6438;SDS011;3252;52.540;13.290;2022-09-25T20:13:16;6.87;;;4.77;;
6438;SDS011;3252;52.540;13.290;2022-09-25T20:15:20;6.53;;;4.77;;
6438;SDS011;3252;52.540;13.290;2022-09-25T20:17:22;4.50;;;4.10;;
6438;SDS011;3252;52.540;13.290;2022-09-25T20:19:24;6.30;;;5.03;;
6438;SDS011;3252;52.540;13.290;2022-09-25T20:21:27;4.33;;;3.90;;
6438;SDS011;3252;52.540;13.290;2022-09-25T20:23:31;5.20;;;4.10;;
6438;SDS011;3252;52.540;13.290;2022-09-25T20:25:33;6.20;;;4.00;;
6438;SDS011;3252;52.540;13.290;2022-09-25T20:27:36;5.57;;;4.33;;
6438;SDS011;3252;52.540;13.290;2022-09-25T20:29:38;4.90;;;4.00;;
6438;SDS011;3252;52.540;13.290;2022-09-25T20:31:42;6.27;;;4.07;;
6438;SDS011;3252;52.540;13.290;2022-09-25T20:33:46;7.07;;;4.20;;
6438;SDS011;3252;52.540;13.290;2022-09-25T20:35:48;4.70;;;4.00;;
6438;SDS011;3252;52.540;13.290;2022-09-25T20:37:50;4.77;;;4.13;;
6438;SDS011;3252;52.540;13.290;2022-09-25T20:39:52;11.53;;;10.30;;
6438;SDS011;3252;52.540;13.290;2022-09-25T20:41:54;8.17;;;5.47;;
6438;SDS011;3252;52.540;13.290;2022-09-25T20:43:57;6.40;;;4.57;;
6438;SDS011;3252;52.540;13.290;2022-09-25T20:46:00;6.03;;;3.83;;
